createdAt,value
2019-05-22T00:03:20.648Z,94711.64
2019-05-22T00:08:23.415Z,94707.55
2019-05-22T00:13:30.299Z,94705.93
2019-05-22T00:18:33.519Z,94709.36
2019-05-22T00:23:37.200Z,94711.19
2019-05-22T00:28:40.157Z,94711.56
2019-05-22T00:33:43.428Z,94714.50
2019-05-22T00:38:45.954Z,94716.13
2019-05-22T00:43:48.914Z,94717.30
2019-05-22T00:48:51.911Z,94722.42
2019-05-22T00:53:59.256Z,94723.92
2019-05-22T00:59:20.018Z,94711.90
2019-05-22T01:04:23.665Z,94706.41
2019-05-22T01:09:31.110Z,94704.69
2019-05-22T01:14:42.628Z,94705.69
2019-05-22T01:19:39.053Z,94709.56
2019-05-22T01:24:41.947Z,94726.52
2019-05-22T01:29:45.427Z,94726.37
2019-05-22T01:34:47.493Z,94721.17
2019-05-22T01:39:57.384Z,94713.34
2019-05-22T01:45:06.214Z,94715.00
2019-05-22T01:50:06.087Z,94718.71
2019-05-22T01:55:09.480Z,94728.83
2019-05-22T02:00:13.021Z,94727.33
2019-05-22T02:05:15.775Z,94724.36
2019-05-22T02:10:23.896Z,94727.09
2019-05-22T02:15:27.161Z,94730.25
2019-05-22T02:20:30.725Z,94729.75
2019-05-22T02:25:34.002Z,94732.38
2019-05-22T02:30:37.884Z,94735.64
2019-05-22T02:35:41.555Z,94736.24
2019-05-22T02:40:45.502Z,94740.23
2019-05-22T02:45:49.374Z,94743.02
2019-05-22T02:50:51.893Z,94739.19
2019-05-22T02:55:55.316Z,94734.39
2019-05-22T03:01:02.283Z,94733.22
2019-05-22T03:06:08.856Z,94739.39
2019-05-22T03:11:14.595Z,94745.64
2019-05-22T03:16:18.140Z,94747.83
2019-05-22T03:21:20.407Z,94745.40
2019-05-22T03:26:37.887Z,94747.88
2019-05-22T03:31:41.289Z,94743.02
2019-05-22T03:36:43.402Z,94748.58
2019-05-22T03:41:45.341Z,94752.27
2019-05-22T03:46:47.732Z,94752.98
2019-05-22T03:51:52.117Z,94751.06
2019-05-22T03:56:54.782Z,94749.94
2019-05-22T04:01:57.318Z,94754.34
2019-05-22T04:07:00.296Z,94755.14
2019-05-22T04:12:02.329Z,94745.34
2019-05-22T04:17:06.496Z,94753.92
2019-05-22T04:22:09.341Z,94750.39
2019-05-22T04:27:12.539Z,94754.19
2019-05-22T04:32:25.360Z,94762.59
2019-05-22T04:37:29.749Z,94760.19
2019-05-22T04:42:32.817Z,94756.45
2019-05-22T04:47:36.307Z,94759.26
2019-05-22T04:52:38.390Z,94760.45
2019-05-22T04:57:41.370Z,94758.16
2019-05-22T05:02:43.535Z,94765.09
2019-05-22T05:07:47.046Z,94758.81
2019-05-22T05:12:49.176Z,94756.66
2019-05-22T05:18:09.625Z,94755.63
2019-05-22T05:24:00.709Z,94748.08
2019-05-22T05:29:08.754Z,94736.91
2019-05-22T05:34:17.394Z,94736.64
2019-05-22T05:39:39.960Z,94725.83
2019-05-22T05:50:09.914Z,94734.55
2019-05-22T05:55:13.090Z,94734.50
2019-05-22T06:05:47.556Z,94734.37
2019-05-22T06:11:19.077Z,94737.59
2019-05-22T06:16:44.078Z,94739.26
2019-05-22T06:21:48.056Z,94745.55
2019-05-22T06:26:56.717Z,94748.27
2019-05-22T06:32:05.934Z,94747.81
2019-05-22T06:37:31.515Z,94753.38
2019-05-22T06:42:35.272Z,94751.06
2019-05-22T06:47:38.538Z,94750.41
2019-05-22T06:52:41.163Z,94750.47
2019-05-22T06:57:43.195Z,94753.36
2019-05-22T07:02:45.157Z,94748.12
2019-05-22T07:07:47.781Z,94754.24
2019-05-22T07:12:51.141Z,94747.06
2019-05-22T07:17:54.419Z,94731.23
2019-05-22T07:22:59.204Z,94721.03
2019-05-22T07:28:07.698Z,94708.81
2019-05-22T07:33:11.998Z,94714.23
2019-05-22T07:38:17.456Z,94707.75
2019-05-22T07:43:20.815Z,94704.13
2019-05-22T07:48:24.771Z,94687.64
2019-05-22T07:53:28.694Z,94682.86
2019-05-22T07:58:34.519Z,94672.42
2019-05-22T08:03:36.683Z,94671.50
2019-05-22T08:08:42.080Z,94663.94
2019-05-22T08:13:45.419Z,94690.80
2019-05-22T08:18:47.701Z,94680.08
2019-05-22T08:23:51.569Z,94678.66
2019-05-22T08:28:54.099Z,94677.69
2019-05-22T08:33:55.982Z,94680.91
2019-05-22T08:38:59.604Z,94676.44
2019-05-22T08:44:16.048Z,94680.33
2019-05-22T08:49:08.203Z,94681.27
2019-05-22T08:54:11.844Z,94677.16
2019-05-22T08:59:19.479Z,94680.34
2019-05-22T09:04:19.696Z,94683.48
2019-05-22T09:09:24.716Z,94677.70
2019-05-22T09:14:27.619Z,94677.52
2019-05-22T09:19:32.032Z,94681.72
2019-05-22T09:24:37.114Z,94667.89
2019-05-22T09:29:39.381Z,94683.08
2019-05-22T09:34:43.363Z,94684.57
2019-05-22T09:39:46.072Z,94679.05
2019-05-22T09:44:48.886Z,94674.84
2019-05-22T09:49:51.194Z,94673.32
2019-05-22T09:54:54.776Z,94665.34
2019-05-22T09:59:57.118Z,94667.25
2019-05-22T10:05:00.038Z,94657.23
2019-05-22T10:10:04.824Z,94662.14
2019-05-22T10:15:09.703Z,94661.27
2019-05-22T10:20:12.067Z,94647.79
2019-05-22T10:25:16.653Z,94660.03
2019-05-22T10:30:22.100Z,94648.44
2019-05-22T10:35:27.162Z,94645.53
2019-05-22T10:40:29.423Z,94647.22
2019-05-22T10:45:31.581Z,94653.62
2019-05-22T10:50:33.960Z,94649.58
2019-05-22T10:55:38.827Z,94645.44
2019-05-22T11:00:40.970Z,94645.14
2019-05-22T11:05:43.777Z,94635.75
2019-05-22T11:10:46.728Z,94629.84
2019-05-22T11:15:51.249Z,94631.02
2019-05-22T11:20:53.409Z,94626.76
2019-05-22T11:25:56.550Z,94627.34
2019-05-22T11:30:59.648Z,94613.99
2019-05-22T11:36:02.415Z,94602.45
2019-05-22T11:41:09.391Z,94598.95
2019-05-22T11:46:11.762Z,94588.61
2019-05-22T11:51:14.973Z,94577.63
2019-05-22T11:56:17.121Z,94572.97
2019-05-22T12:01:20.742Z,94593.27
2019-05-22T12:06:24.187Z,94584.36
2019-05-22T12:11:27.422Z,94588.30
2019-05-22T12:16:30.023Z,94585.31
2019-05-22T12:21:32.491Z,94567.97
2019-05-22T12:26:36.038Z,94560.52
2019-05-22T12:31:38.329Z,94556.69
2019-05-22T12:36:40.266Z,94562.41
2019-05-22T12:41:42.664Z,94563.77
2019-05-22T12:46:44.788Z,94557.38
2019-05-22T12:51:47.813Z,94550.48
2019-05-22T12:56:49.974Z,94539.51
2019-05-22T13:01:53.018Z,94531.84
2019-05-22T13:06:55.315Z,94529.80
2019-05-22T13:11:57.271Z,94527.66
2019-05-22T13:16:59.319Z,94529.75
2019-05-22T13:22:04.192Z,94535.31
2019-05-22T13:27:10.527Z,94539.73
2019-05-22T13:32:13.785Z,94544.85
2019-05-22T13:37:16.434Z,94530.73
2019-05-22T13:42:18.900Z,94524.59
2019-05-22T13:47:21.626Z,94528.16
2019-05-22T13:52:23.472Z,94526.95
2019-05-22T13:57:26.054Z,94497.57
2019-05-22T14:02:28.506Z,94502.14
2019-05-22T14:07:30.672Z,94493.36
2019-05-22T14:12:32.750Z,94480.34
2019-05-22T14:17:35.818Z,94485.64
2019-05-22T14:22:38.123Z,94478.39
2019-05-22T14:27:41.752Z,94459.14
2019-05-22T14:32:44.299Z,94463.27
2019-05-22T14:37:46.664Z,94460.41
2019-05-22T14:42:49.803Z,94455.41
2019-05-22T14:47:51.815Z,94459.54
2019-05-22T14:52:53.806Z,94458.42
2019-05-22T14:57:56.520Z,94448.20
2019-05-22T15:02:59.574Z,94441.56
2019-05-22T15:08:03.754Z,94440.88
2019-05-22T15:13:07.396Z,94447.34
2019-05-22T15:18:10.505Z,94440.19
2019-05-22T15:23:12.738Z,94437.37
2019-05-22T15:28:14.955Z,94434.91
2019-05-22T15:33:17.093Z,94428.71
2019-05-22T15:38:20.683Z,94426.41
2019-05-22T15:43:25.725Z,94425.42
2019-05-22T15:48:31.361Z,94423.23
2019-05-22T15:53:36.421Z,94428.64
2019-05-22T15:58:42.402Z,94417.25
2019-05-22T16:03:46.408Z,94431.78
2019-05-22T16:08:49.508Z,94434.52
2019-05-22T16:13:54.018Z,94436.80
2019-05-22T16:18:59.636Z,94434.42
2019-05-22T16:24:04.139Z,94441.93
2019-05-22T16:29:10.131Z,94439.17
2019-05-22T16:34:17.205Z,94447.44
2019-05-22T16:39:21.104Z,94458.39
2019-05-22T16:44:24.132Z,94456.88
2019-05-22T16:49:26.786Z,94463.30
2019-05-22T16:54:29.978Z,94470.56
2019-05-22T16:59:37.359Z,94484.35
2019-05-22T17:04:39.508Z,94508.94
2019-05-22T17:09:43.065Z,94518.44
2019-05-22T17:14:48.409Z,94521.77
2019-05-22T17:19:51.206Z,94527.20
2019-05-22T17:24:55.818Z,94548.83
2019-05-22T17:30:00.292Z,94555.16
2019-05-22T17:35:03.647Z,94542.30
2019-05-22T17:40:08.409Z,94569.54
2019-05-22T17:45:15.060Z,94568.63
2019-05-22T17:50:26.919Z,94557.67
2019-05-22T17:55:27.858Z,94538.23
2019-05-22T18:00:35.167Z,94538.23
2019-05-22T18:05:40.499Z,94549.71
2019-05-22T18:10:47.491Z,94552.25
2019-05-22T18:15:50.278Z,94565.25
2019-05-22T18:20:53.019Z,94560.28
2019-05-22T18:25:55.718Z,94564.44
2019-05-22T18:30:58.093Z,94574.39
2019-05-22T18:36:02.000Z,94593.17
2019-05-22T18:41:04.263Z,94608.39
2019-05-22T18:46:06.991Z,94631.52
2019-05-22T18:51:10.126Z,94644.00
2019-05-22T18:56:13.050Z,94641.47
2019-05-22T19:01:16.488Z,94645.98
2019-05-22T19:06:29.683Z,94665.87
2019-05-22T19:11:23.382Z,94661.42
2019-05-22T19:16:25.665Z,94676.55
2019-05-22T19:21:27.621Z,94675.34
2019-05-22T19:26:30.082Z,94682.38
2019-05-22T19:31:33.750Z,94687.73
2019-05-22T19:36:36.567Z,94672.86
2019-05-22T19:41:41.651Z,94662.61
2019-05-22T19:46:43.899Z,94650.79
2019-05-22T19:51:48.724Z,94635.54
2019-05-22T19:56:51.581Z,94633.42
2019-05-22T20:01:53.545Z,94628.44
2019-05-22T20:06:56.450Z,94631.50
2019-05-22T20:11:59.501Z,94643.58
2019-05-22T20:17:01.770Z,94646.66
2019-05-22T20:22:06.813Z,94652.79
2019-05-22T20:27:10.136Z,94658.64
2019-05-22T20:32:15.811Z,94664.80
2019-05-22T20:37:18.308Z,94660.88
2019-05-22T20:42:20.520Z,94650.92
2019-05-22T20:47:24.993Z,94648.52
2019-05-22T20:52:29.647Z,94637.68
2019-05-22T20:57:33.178Z,94636.31
2019-05-22T21:02:35.543Z,94631.09
2019-05-22T21:07:42.278Z,94638.17
2019-05-22T21:12:45.975Z,94638.97
2019-05-22T21:17:49.445Z,94642.19
2019-05-22T21:22:51.722Z,94636.20
2019-05-22T21:27:54.645Z,94637.29
2019-05-22T21:32:56.756Z,94658.55
2019-05-22T21:37:59.943Z,94674.90
2019-05-22T21:43:03.717Z,94678.52
2019-05-22T21:48:06.222Z,94690.33
2019-05-22T21:53:12.169Z,94677.27
2019-05-22T21:58:14.793Z,94674.80
2019-05-22T22:03:21.736Z,94664.95
2019-05-22T22:08:24.619Z,94660.78
2019-05-22T22:13:26.711Z,94656.47
2019-05-22T22:18:29.683Z,94667.91
2019-05-22T22:23:31.305Z,94667.35
2019-05-22T22:28:33.998Z,94679.70
2019-05-22T22:33:37.512Z,94675.67
2019-05-22T22:38:42.893Z,94678.97
2019-05-22T22:43:46.126Z,94681.26
2019-05-22T22:48:51.754Z,94681.42
2019-05-22T22:53:55.691Z,94678.59
2019-05-22T22:58:57.833Z,94676.81
2019-05-22T23:04:04.089Z,94682.28
2019-05-22T23:09:07.989Z,94670.02
2019-05-22T23:14:10.965Z,94675.03
2019-05-22T23:19:17.756Z,94665.91
2019-05-22T23:24:22.613Z,94661.12
2019-05-22T23:29:24.826Z,94665.00
2019-05-22T23:34:27.966Z,94663.14
2019-05-22T23:39:32.219Z,94663.13
2019-05-22T23:44:35.331Z,94662.23
2019-05-22T23:49:39.199Z,94653.45
2019-05-22T23:54:41.224Z,94650.59
2019-05-22T23:59:45.309Z,94638.55
